Time;durP1;ratioP1;P1;durP2;ratioP2;P2;SDS_P1;SDS_P2;PMS_P1;PMS_P2;Temp;Humidity;BMP_temperature;BMP_pressure;BME280_temperature;BME280_humidity;BME280_pressure;Samples;Min_cycle;Max_cycle;Signal;HPM_P1;HPM_P2
2023/07/14 00:01:49;;;;;;;0.35;0.28;;;;;;;13.53;100.00;100875.22;5036364;28;20123;-54
2023/07/14 00:04:25;;;;;;;8.30;1.55;;;;;;;13.48;100.00;100862.50;5032079;28;20036;-57
2023/07/14 00:06:51;;;;;;;0.73;0.32;;;;;;;13.43;100.00;100862.28;5036287;28;20929;-61
2023/07/14 00:09:30;;;;;;;0.35;0.30;;;;;;;13.25;100.00;100861.97;5033454;28;20541;-57
2023/07/14 00:11:57;;;;;;;1.27;0.75;;;;;;;13.28;100.00;100866.94;5034871;28;20382;-57
2023/07/14 00:14:23;;;;;;;1.38;0.00;;;;;;;13.36;100.00;100856.09;5033116;28;20025;-58
2023/07/14 00:16:49;;;;;;;0.45;0.20;;;;;;;13.42;100.00;100857.94;5025554;28;20485;-57
2023/07/14 00:19:16;;;;;;;0.60;0.32;;;;;;;13.50;100.00;100857.78;5033940;28;20740;-58
2023/07/14 00:21:43;;;;;;;0.30;0.30;;;;;;;13.60;100.00;100853.91;5029854;28;20036;-55
2023/07/14 00:24:14;;;;;;;1.25;0.38;;;;;;;13.60;100.00;100853.91;5027268;28;20072;-59
2023/07/14 00:26:43;;;;;;;1.13;0.30;;;;;;;13.53;100.00;100841.41;5029410;28;20032;-57
2023/07/14 00:29:26;;;;;;;0.45;0.40;;;;;;;13.55;100.00;100851.84;5033330;28;20045;-55
2023/07/14 00:31:51;;;;;;;2.05;0.88;;;;;;;13.50;100.00;100844.47;5038124;28;20025;-53
2023/07/14 00:34:16;;;;;;;0.50;0.50;;;;;;;13.38;100.00;100838.06;5033660;28;20048;-57
2023/07/14 00:36:42;;;;;;;1.45;1.20;;;;;;;13.35;100.00;100835.00;5032531;28;20025;-55
2023/07/14 00:39:07;;;;;;;1.27;0.50;;;;;;;13.47;100.00;100834.19;5042809;28;20041;-57
2023/07/14 00:41:32;;;;;;;0.82;0.25;;;;;;;13.47;100.00;100839.53;5033688;28;20453;-58
2023/07/14 00:43:58;;;;;;;0.32;0.30;;;;;;;13.47;100.00;100836.84;5043860;28;20496;-58
2023/07/14 00:46:27;;;;;;;2.92;0.32;;;;;;;13.44;100.00;100834.59;5040602;28;20090;-56
2023/07/14 00:48:55;;;;;;;0.30;0.20;;;;;;;13.32;100.00;100820.25;5048298;28;20497;-59
2023/07/14 00:51:23;;;;;;;1.45;1.10;;;;;;;13.29;100.00;100823.28;5040861;28;21312;-58
2023/07/14 00:53:48;;;;;;;0.32;0.25;;;;;;;13.34;100.00;100820.84;5037394;28;20823;-60
2023/07/14 00:56:14;;;;;;;0.77;0.32;;;;;;;13.26;100.00;100816.53;5042375;28;20048;-55
2023/07/14 00:58:45;;;;;;;1.40;0.55;;;;;;;13.25;100.00;100820.19;5037722;28;20426;-53
2023/07/14 01:01:21;;;;;;;1.85;0.30;;;;;;;13.21;100.00;100816.28;5034946;28;20041;-57
2023/07/14 01:03:48;;;;;;;0.95;0.38;;;;;;;13.24;100.00;100817.72;5038876;28;20213;-56
2023/07/14 01:06:18;;;;;;;0.60;0.10;;;;;;;13.27;100.00;100814.69;5036857;28;20038;-59
2023/07/14 01:08:50;;;;;;;0.20;0.10;;;;;;;13.24;100.00;100818.56;5031016;28;20428;-59
2023/07/14 01:11:20;;;;;;;0.73;0.52;;;;;;;13.23;100.00;100814.22;5042406;28;20095;-58
2023/07/14 01:13:45;;;;;;;0.95;0.20;;;;;;;13.27;100.00;100815.53;5043877;28;20025;-57
2023/07/14 01:16:14;;;;;;;0.75;0.30;;;;;;;13.25;100.00;100824.69;5034769;28;20505;-58
2023/07/14 01:18:41;;;;;;;0.50;0.35;;;;;;;13.26;100.00;100829.00;5033943;28;20391;-56
2023/07/14 01:21:07;;;;;;;0.98;0.68;;;;;;;13.29;100.00;100821.47;5031046;28;20071;-58
2023/07/14 01:23:42;;;;;;;0.77;0.60;;;;;;;13.30;100.00;100820.44;5039130;28;20037;-56
2023/07/14 01:26:14;;;;;;;2.58;1.00;;;;;;;13.32;100.00;100817.59;5044643;28;20044;-55
2023/07/14 01:28:40;;;;;;;1.17;0.40;;;;;;;13.38;100.00;100819.44;5039259;28;20037;-55
2023/07/14 01:31:17;;;;;;;2.60;0.38;;;;;;;13.38;100.00;100815.94;5035253;28;20102;-58
2023/07/14 01:33:42;;;;;;;0.40;0.20;;;;;;;13.29;100.00;100815.28;5040648;28;20074;-57
2023/07/14 01:36:08;;;;;;;2.47;0.20;;;;;;;13.21;100.00;100813.59;5036252;28;20033;-58
2023/07/14 01:38:34;;;;;;;0.10;0.10;;;;;;;13.15;100.00;100808.28;5042224;28;20526;-56
2023/07/14 01:41:00;;;;;;;2.30;0.20;;;;;;;13.18;100.00;100806.03;5037071;28;20029;-58
2023/07/14 01:43:26;;;;;;;1.65;0.40;;;;;;;13.21;100.00;100805.63;5042389;28;20032;-57
2023/07/14 01:45:57;;;;;;;0.82;0.10;;;;;;;13.22;100.00;100803.81;5030837;28;20394;-58
2023/07/14 01:48:27;;;;;;;1.27;0.50;;;;;;;13.19;100.00;100801.50;5042588;28;20030;-56
2023/07/14 01:50:56;;;;;;;1.15;0.22;;;;;;;13.14;100.00;100798.63;5032264;28;20032;-58
2023/07/14 01:53:32;;;;;;;0.50;0.50;;;;;;;13.09;100.00;100794.75;5039101;28;20040;-60
2023/07/14 01:56:04;;;;;;;1.38;0.40;;;;;;;13.09;100.00;100794.75;5030713;28;20425;-56
2023/07/14 01:58:34;;;;;;;1.05;0.20;;;;;;;13.13;100.00;100789.00;5030455;28;20147;-58
2023/07/14 02:01:01;;;;;;;0.40;0.20;;;;;;;13.08;100.00;100794.94;5038807;28;20407;-60
2023/07/14 02:03:45;;;;;;;0.88;0.32;;;;;;;13.11;100.00;100786.53;5042001;28;20044;-58
2023/07/14 02:06:11;;;;;;;1.20;0.32;;;;;;;13.15;100.00;100790.47;5038679;28;20034;-57
2023/07/14 02:08:36;;;;;;;0.40;0.30;;;;;;;13.23;100.00;100784.13;5035236;28;20063;-56
2023/07/14 02:11:02;;;;;;;1.08;0.50;;;;;;;13.30;100.00;100785.00;5033166;28;20113;-57
2023/07/14 02:13:28;;;;;;;0.40;0.30;;;;;;;13.31;100.00;100773.31;5038930;28;20079;-61
2023/07/14 02:15:54;;;;;;;1.92;0.73;;;;;;;13.24;100.00;100770.63;5036840;28;20445;-58
2023/07/14 02:18:25;;;;;;;1.10;0.32;;;;;;;13.25;100.00;100772.25;5046954;28;20040;-59
2023/07/14 02:20:52;;;;;;;1.17;0.50;;;;;;;13.18;100.00;100771.41;5033848;28;20078;-59
2023/07/14 02:23:21;;;;;;;1.40;0.10;;;;;;;13.13;100.00;100773.03;5038320;28;20032;-60
2023/07/14 02:26:12;;;;;;;1.70;0.30;;;;;;;13.09;100.00;100762.81;5037946;28;20086;-56
2023/07/14 02:28:37;;;;;;;0.37;0.20;;;;;;;13.15;100.00;100761.16;5035403;28;20049;-57
2023/07/14 02:31:18;;;;;;;0.32;0.20;;;;;;;13.06;100.00;100763.22;5039015;28;20045;-57
2023/07/14 02:33:49;;;;;;;0.80;0.20;;;;;;;13.02;100.00;100761.13;5035103;28;20060;-58
2023/07/14 02:36:21;;;;;;;1.10;0.40;;;;;;;13.02;100.00;100753.16;5042295;28;20041;-57
2023/07/14 02:38:46;;;;;;;1.02;0.35;;;;;;;13.09;100.00;100754.00;5041825;28;20834;-53
2023/07/14 02:41:23;;;;;;;0.55;0.55;;;;;;;13.06;100.00;100749.91;5037227;28;20041;-56
2023/07/14 02:43:53;;;;;;;0.30;0.03;;;;;;;13.07;100.00;100748.03;5043671;28;20358;-57
2023/07/14 02:46:46;;;;;;;0.82;0.38;;;;;;;13.13;100.00;100749.06;5034398;28;20040;-58
2023/07/14 02:49:11;;;;;;;0.50;0.13;;;;;;;13.02;100.00;100755.81;5045688;28;20046;-56
2023/07/14 02:51:36;;;;;;;1.45;0.30;;;;;;;12.96;100.00;100748.59;5042204;28;20028;-60
2023/07/14 02:54:04;;;;;;;0.50;0.40;;;;;;;12.95;100.00;100754.97;5029139;28;20036;-57
2023/07/14 02:56:30;;;;;;;0.77;0.20;;;;;;;13.01;100.00;100752.34;5027785;28;20068;-56
2023/07/14 02:58:56;;;;;;;1.48;0.45;;;;;;;13.10;100.00;100742.31;5042523;28;20033;-57
2023/07/14 03:01:21;;;;;;;2.13;0.57;;;;;;;13.15;100.00;100742.53;5029226;28;20367;-54
2023/07/14 03:03:47;;;;;;;0.73;0.73;;;;;;;13.10;100.00;100743.13;5031797;28;20152;-58
2023/07/14 03:06:15;;;;;;;1.00;0.20;;;;;;;13.18;100.00;100746.63;5023546;28;20025;-58
2023/07/14 03:08:40;;;;;;;0.82;0.45;;;;;;;13.17;100.00;100740.50;5038271;28;20481;-58
2023/07/14 03:11:05;;;;;;;0.63;0.40;;;;;;;13.16;100.00;100741.50;5038055;28;20074;-59
2023/07/14 03:13:31;;;;;;;0.47;0.40;;;;;;;13.15;100.00;100734.53;5034863;28;20550;-57
2023/07/14 03:15:57;;;;;;;3.63;0.60;;;;;;;13.14;100.00;100738.25;5035170;28;20125;-59
2023/07/14 03:18:23;;;;;;;1.55;0.32;;;;;;;13.21;100.00;100731.06;5033537;28;20091;-58
2023/07/14 03:20:55;;;;;;;0.98;0.57;;;;;;;13.24;100.00;100729.84;5027340;28;20048;-57
2023/07/14 03:23:20;;;;;;;1.15;0.35;;;;;;;13.26;100.00;100719.81;5036198;28;20202;-57
2023/07/14 03:25:47;;;;;;;0.20;0.20;;;;;;;13.18;100.00;100712.03;5031644;28;20060;-57
2023/07/14 03:28:12;;;;;;;1.85;1.05;;;;;;;13.12;100.00;100707.53;5033009;28;20033;-57
2023/07/14 03:30:41;;;;;;;0.45;0.25;;;;;;;13.01;100.00;100703.59;5027378;28;20044;-57
2023/07/14 03:33:07;;;;;;;2.47;0.30;;;;;;;12.91;100.00;100706.66;5038927;28;20033;-55
2023/07/14 03:35:32;;;;;;;2.90;0.65;;;;;;;12.95;100.00;100710.53;5032426;28;20431;-58
2023/07/14 03:37:57;;;;;;;0.40;0.40;;;;;;;12.94;100.00;100705.44;5032279;28;20047;-59
2023/07/14 03:40:23;;;;;;;1.85;0.10;;;;;;;12.90;100.00;100702.34;5031798;28;20048;-58
2023/07/14 03:42:48;;;;;;;0.68;0.55;;;;;;;12.85;100.00;100710.09;5034738;28;20040;-58
2023/07/14 03:45:14;;;;;;;0.70;0.20;;;;;;;12.81;100.00;100707.03;5030235;28;20124;-57
2023/07/14 03:47:39;;;;;;;3.25;0.60;;;;;;;12.81;100.00;100709.69;5028555;28;20033;-59
2023/07/14 03:50:06;;;;;;;0.22;0.17;;;;;;;12.72;100.00;100708.22;5031840;28;20159;-56
2023/07/14 03:52:32;;;;;;;1.67;0.50;;;;;;;12.64;100.00;100716.38;5032617;28;20044;-56
2023/07/14 03:54:57;;;;;;;0.63;0.52;;;;;;;12.61;100.00;100708.78;5031326;28;20026;-60
2023/07/14 03:57:22;;;;;;;1.42;0.30;;;;;;;12.56;100.00;100716.53;5033514;28;20119;-58
2023/07/14 03:59:48;;;;;;;2.20;0.28;;;;;;;12.51;100.00;100716.31;5026640;28;20033;-54
2023/07/14 04:02:13;;;;;;;0.60;0.13;;;;;;;12.38;100.00;100712.56;5030374;28;20049;-55
2023/07/14 04:04:38;;;;;;;1.10;0.43;;;;;;;12.42;100.00;100729.78;5034462;28;20033;-54
2023/07/14 04:07:04;;;;;;;0.52;0.52;;;;;;;12.58;100.00;100725.16;5028790;28;20032;-57
2023/07/14 04:09:29;;;;;;;2.28;0.25;;;;;;;12.76;100.00;100717.44;5035770;28;20029;-57
2023/07/14 04:11:55;;;;;;;1.30;0.25;;;;;;;12.90;100.00;100709.50;5026391;28;20041;-56
2023/07/14 04:14:20;;;;;;;3.58;0.52;;;;;;;12.97;100.00;100702.38;5034811;28;20025;-57
2023/07/14 04:16:46;;;;;;;1.73;0.52;;;;;;;13.05;100.00;100691.53;5049092;28;20036;-57
2023/07/14 04:19:11;;;;;;;1.30;0.30;;;;;;;13.09;100.00;100695.44;5039290;28;20056;-57
2023/07/14 04:21:36;;;;;;;3.40;1.33;;;;;;;13.17;100.00;100697.91;5030243;28;20179;-56
2023/07/14 04:24:02;;;;;;;2.10;0.35;;;;;;;13.21;100.00;100700.97;5034279;28;20029;-54
2023/07/14 04:26:29;;;;;;;0.77;0.47;;;;;;;13.29;100.00;100703.47;5033578;28;20371;-58
2023/07/14 04:28:54;;;;;;;1.75;0.93;;;;;;;13.32;100.00;100700.41;5031529;28;20033;-52
2023/07/14 04:31:20;;;;;;;3.05;0.32;;;;;;;13.41;100.00;100704.50;5034895;28;20036;-57
2023/07/14 04:33:48;;;;;;;1.80;0.50;;;;;;;13.56;100.00;100695.50;5040364;28;20530;-56
2023/07/14 04:36:14;;;;;;;0.65;0.55;;;;;;;13.60;100.00;100694.84;5031022;28;20038;-57
2023/07/14 04:38:42;;;;;;;1.00;0.57;;;;;;;13.60;100.00;100694.84;5031186;28;20795;-54
2023/07/14 04:41:11;;;;;;;1.80;0.85;;;;;;;13.63;100.00;100682.97;5051058;28;20127;-55
2023/07/14 04:43:37;;;;;;;4.53;0.60;;;;;;;13.62;100.00;100668.84;5034405;28;20909;-59
2023/07/14 04:46:02;;;;;;;2.88;0.40;;;;;;;13.65;100.00;100665.75;5026580;28;20083;-58
2023/07/14 04:48:28;;;;;;;2.13;0.82;;;;;;;13.69;100.00;100667.00;5033333;28;20479;-59
2023/07/14 04:50:53;;;;;;;2.90;0.75;;;;;;;13.75;100.00;100668.81;5036636;28;20036;-57
2023/07/14 04:53:19;;;;;;;0.73;0.57;;;;;;;13.76;100.00;100667.00;5034007;28;20112;-57
2023/07/14 04:55:46;;;;;;;3.22;0.40;;;;;;;13.80;100.00;100664.72;5026702;28;20030;-58
2023/07/14 04:58:15;;;;;;;0.73;0.68;;;;;;;13.86;100.00;100666.56;5033961;28;20041;-60
2023/07/14 05:00:42;;;;;;;2.20;0.47;;;;;;;13.91;100.00;100669.41;5036035;28;20040;-53
2023/07/14 05:03:08;;;;;;;3.92;0.43;;;;;;;13.97;100.00;100681.94;5036229;28;20131;-55
2023/07/14 05:05:33;;;;;;;2.38;0.93;;;;;;;14.07;100.00;100679.66;5027960;28;20029;-57
2023/07/14 05:08:00;;;;;;;3.03;1.23;;;;;;;14.18;100.00;100670.19;5032956;28;20040;-56
2023/07/14 05:10:27;;;;;;;3.38;1.27;;;;;;;14.32;100.00;100654.94;5027414;28;20106;-55
2023/07/14 05:12:54;;;;;;;6.10;0.95;;;;;;;14.37;100.00;100644.44;5028886;28;20442;-56
2023/07/14 05:15:21;;;;;;;2.30;1.50;;;;;;;14.44;100.00;100639.91;5033775;28;20045;-56
2023/07/14 05:17:47;;;;;;;4.00;1.20;;;;;;;14.53;100.00;100633.34;5031726;28;20368;-59
2023/07/14 05:20:14;;;;;;;2.47;1.13;;;;;;;14.64;100.00;100639.00;5036575;28;20033;-58
2023/07/14 05:22:44;;;;;;;3.10;0.90;;;;;;;14.69;100.00;100628.50;5038880;28;20117;-57
2023/07/14 05:25:10;;;;;;;5.32;0.95;;;;;;;14.70;100.00;100632.84;5039012;28;20041;-57
2023/07/14 05:27:36;;;;;;;4.13;0.63;;;;;;;14.79;100.00;100620.84;5028574;28;20029;-58
2023/07/14 05:30:02;;;;;;;1.48;0.70;;;;;;;14.79;100.00;100628.84;5036274;28;20995;-52
2023/07/14 05:32:28;;;;;;;3.80;0.60;;;;;;;14.80;100.00;100625.19;5044635;28;20064;-55
2023/07/14 05:34:53;;;;;;;4.15;1.15;;;;;;;14.84;100.00;100615.69;5046594;28;20020;-58
2023/07/14 05:37:19;;;;;;;2.53;0.88;;;;;;;14.89;100.00;100617.72;5034525;28;20026;-57
2023/07/14 05:39:45;;;;;;;3.15;0.90;;;;;;;14.97;100.00;100609.44;5037945;28;20039;-57
2023/07/14 05:42:10;;;;;;;6.13;1.30;;;;;;;15.08;100.00;100607.94;5044669;28;20036;-53
2023/07/14 05:44:36;;;;;;;5.97;1.33;;;;;;;15.18;100.00;100600.22;5042496;28;20033;-54
2023/07/14 05:47:01;;;;;;;3.92;1.17;;;;;;;15.27;100.00;100606.94;5034598;28;20085;-59
2023/07/14 05:49:27;;;;;;;2.80;1.45;;;;;;;15.36;100.00;100605.66;5035326;28;20699;-58
2023/07/14 05:51:52;;;;;;;3.67;1.38;;;;;;;15.45;100.00;100601.66;5042932;28;20092;-53
2023/07/14 05:54:18;;;;;;;7.78;0.95;;;;;;;15.58;100.00;100603.38;5034981;28;20037;-54
2023/07/14 05:56:43;;;;;;;4.15;0.93;;;;;;;15.67;100.00;100598.56;5029420;28;20461;-55
2023/07/14 05:59:10;;;;;;;5.85;1.48;;;;;;;15.67;100.00;100599.38;5031391;28;20068;-53
2023/07/14 06:01:35;;;;;;;2.47;1.10;;;;;;;15.72;100.00;100598.75;5031178;28;20044;-55
2023/07/14 06:04:00;;;;;;;5.28;1.23;;;;;;;15.75;100.00;100592.97;5035269;28;20616;-48
2023/07/14 06:06:26;;;;;;;3.58;1.27;;;;;;;15.76;100.00;100586.56;5038393;28;20061;-58
2023/07/14 06:08:55;;;;;;;3.13;1.40;;;;;;;15.70;100.00;100576.78;5034225;28;20022;-54
2023/07/14 06:11:20;;;;;;;5.35;1.52;;;;;;;15.70;100.00;100576.78;5034400;28;20034;-49
2023/07/14 06:13:46;;;;;;;5.78;1.58;;;;;;;15.70;100.00;100574.09;5029823;28;20041;-57
2023/07/14 06:16:11;;;;;;;6.28;1.35;;;;;;;15.72;100.00;100580.03;5035250;28;20167;-57
2023/07/14 06:18:36;;;;;;;4.80;1.80;;;;;;;15.72;100.00;100576.53;5029637;28;20037;-59
2023/07/14 06:21:02;;;;;;;5.70;1.75;;;;;;;15.79;100.00;100566.59;5037277;28;20060;-60
2023/07/14 06:23:28;;;;;;;4.82;1.13;;;;;;;15.87;100.00;100571.63;5029995;28;20399;-55
2023/07/14 06:25:54;;;;;;;2.72;0.93;;;;;;;15.97;100.00;100576.47;5033381;28;20036;-60
2023/07/14 06:28:20;;;;;;;10.10;2.10;;;;;;;16.07;100.00;100568.72;5031616;28;20044;-55
2023/07/14 06:30:46;;;;;;;5.85;2.10;;;;;;;16.16;100.00;100570.06;5029536;28;20029;-54
2023/07/14 06:33:12;;;;;;;6.53;2.40;;;;;;;16.24;100.00;100563.59;5040427;28;20082;-57
2023/07/14 06:35:39;;;;;;;5.90;2.45;;;;;;;16.33;100.00;100563.00;5033767;28;20132;-50
2023/07/14 06:38:04;;;;;;;6.43;2.33;;;;;;;16.45;100.00;100559.59;5035526;28;20033;-57
2023/07/14 06:40:30;;;;;;;7.00;1.70;;;;;;;16.51;100.00;100561.34;5041504;28;20046;-58
2023/07/14 06:42:55;;;;;;;3.00;2.15;;;;;;;16.60;100.00;100548.44;5030706;28;20086;-58
2023/07/14 06:45:21;;;;;;;3.13;1.77;;;;;;;16.78;100.00;100541.19;5033972;28;20033;-56
2023/07/14 06:47:46;;;;;;;3.97;1.67;;;;;;;16.91;100.00;100534.81;5041418;28;20025;-55
2023/07/14 06:50:11;;;;;;;4.75;1.20;;;;;;;17.00;100.00;100527.25;5039405;28;20556;-48
2023/07/14 06:52:38;;;;;;;6.32;1.20;;;;;;;17.03;100.00;100526.75;5038821;28;21384;-57
2023/07/14 06:55:05;;;;;;;2.83;0.98;;;;;;;17.05;100.00;100524.69;5031847;28;20490;-47
2023/07/14 06:57:30;;;;;;;12.02;2.13;;;;;;;17.18;100.00;100512.91;5031113;28;20040;-57
2023/07/14 06:59:56;;;;;;;7.68;2.03;;;;;;;17.36;100.00;100511.97;5037266;28;20423;-53
2023/07/14 07:02:21;;;;;;;3.70;1.35;;;;;;;17.43;100.00;100500.06;5032651;28;20037;-53
2023/07/14 07:04:46;;;;;;;3.70;1.30;;;;;;;17.48;100.00;100491.34;5029111;28;20386;-61
2023/07/14 07:07:12;;;;;;;6.43;2.80;;;;;;;17.43;100.00;100485.84;5028945;28;20109;-52
2023/07/14 07:09:37;;;;;;;7.10;2.17;;;;;;;17.44;100.00;100477.56;5030104;28;20087;-51
2023/07/14 07:12:03;;;;;;;1.75;0.98;;;;;;;17.48;100.00;100480.59;5032118;28;20065;-58
2023/07/14 07:14:28;;;;;;;6.20;1.05;;;;;;;17.50;100.00;100475.81;5022752;28;20040;-50
2023/07/14 07:16:54;;;;;;;3.28;1.17;;;;;;;17.58;100.00;100472.78;5033710;28;20048;-58
2023/07/14 07:19:19;;;;;;;5.82;1.98;;;;;;;17.60;100.00;100467.97;5030387;28;20411;-57
2023/07/14 07:21:44;;;;;;;3.28;1.20;;;;;;;17.62;100.00;100465.88;5032298;28;20645;-56
2023/07/14 07:24:09;;;;;;;5.53;1.48;;;;;;;17.61;100.00;100463.44;5045312;28;20060;-51
2023/07/14 07:26:35;;;;;;;2.85;0.80;;;;;;;17.67;100.00;100462.47;5033523;28;20033;-52
2023/07/14 07:29:01;;;;;;;3.55;1.13;;;;;;;17.67;100.00;100463.28;5039710;28;20112;-52
2023/07/14 07:31:26;;;;;;;6.32;2.55;;;;;;;17.59;100.00;100455.63;5036385;28;20068;-48
2023/07/14 07:33:51;;;;;;;4.90;1.17;;;;;;;17.55;100.00;100446.41;5031158;28;20024;-49
2023/07/14 07:36:17;;;;;;;4.65;1.40;;;;;;;17.53;100.00;100448.53;5037050;28;20392;-54
2023/07/14 07:38:47;;;;;;;6.43;1.50;;;;;;;17.51;100.00;100456.00;5034110;28;20099;-55
2023/07/14 07:41:18;;;;;;;6.47;0.88;;;;;;;17.39;100.00;100445.31;5037194;28;20048;-50
2023/07/14 07:43:44;;;;;;;4.65;0.65;;;;;;;17.33;100.00;100442.78;5029185;28;20025;-49
2023/07/14 07:46:10;;;;;;;8.35;0.80;;;;;;;17.34;100.00;100441.72;5028888;28;20025;-52
2023/07/14 07:48:36;;;;;;;4.55;1.13;;;;;;;17.33;100.00;100442.78;5031706;28;20063;-51
2023/07/14 07:51:06;;;;;;;2.55;0.82;;;;;;;17.25;100.00;100432.41;5028151;28;20036;-49
2023/07/14 07:53:32;;;;;;;2.53;1.25;;;;;;;17.34;100.00;100417.59;5027854;28;20035;-55
2023/07/14 07:55:59;;;;;;;3.88;0.68;;;;;;;17.34;100.00;100418.41;5030588;28;20033;-54
2023/07/14 07:58:24;;;;;;;3.47;0.68;;;;;;;17.38;100.00;100410.72;5026000;28;20028;-55
2023/07/14 08:00:59;;;;;;;7.30;0.77;;;;;;;17.41;100.00;100399.50;5024153;28;20036;-54
2023/07/14 08:03:25;;;;;;;1.88;0.73;;;;;;;17.34;100.00;100405.00;5028931;28;20054;-52
2023/07/14 08:05:50;;;;;;;2.70;0.98;;;;;;;17.35;100.00;100395.13;5027367;28;20098;-48
2023/07/14 08:08:16;;;;;;;4.78;1.23;;;;;;;17.25;100.00;100401.06;5017257;28;20446;-50
2023/07/14 08:10:45;;;;;;;4.97;0.90;;;;;;;17.24;100.00;100394.06;5031601;28;20029;-49
2023/07/14 08:13:12;;;;;;;7.82;2.33;;;;;;;17.24;100.00;100399.44;5028044;28;20505;-49
2023/07/14 08:15:37;;;;;;;3.85;0.57;;;;;;;17.21;100.00;100398.03;5028540;28;20064;-48
2023/07/14 08:18:04;;;;;;;6.18;1.70;;;;;;;17.31;100.00;100393.94;5032776;28;20069;-54
2023/07/14 08:20:30;;;;;;;2.05;0.73;;;;;;;17.27;100.00;100390.94;5034457;28;20504;-51
2023/07/14 08:22:56;;;;;;;6.03;0.77;;;;;;;17.31;100.00;100396.63;5036718;28;20029;-51
2023/07/14 08:25:22;;;;;;;1.73;1.20;;;;;;;17.29;100.00;100398.72;5024828;28;20051;-57
2023/07/14 08:27:47;;;;;;;11.23;1.80;;;;;;;17.21;100.00;100387.31;5025459;28;20657;-47
2023/07/14 08:30:13;;;;;;;5.88;1.00;;;;;;;17.28;100.00;100394.44;5027833;28;20033;-51
2023/07/14 08:32:38;;;;;;;7.82;2.22;;;;;;;17.20;100.00;100383.03;5031775;28;20827;-50
2023/07/14 08:52:24;;;;;;;5.05;1.13;;;;;;;17.14;100.00;100384.00;5027678;28;20036;-48
2023/07/14 08:55:00;;;;;;;7.07;0.85;;;;;;;17.32;100.00;100390.22;5050276;28;20100;-49
2023/07/14 08:57:28;;;;;;;4.75;0.73;;;;;;;17.47;100.00;100373.63;5035686;28;20029;-48
2023/07/14 09:00:00;;;;;;;1.60;0.50;;;;;;;17.44;100.00;100377.59;5043851;28;20414;-49
2023/07/14 09:02:36;;;;;;;5.75;0.73;;;;;;;17.36;100.00;100378.78;5041188;28;20463;-45
2023/07/14 09:05:12;;;;;;;4.25;1.33;;;;;;;17.30;100.00;100378.94;5055776;28;20028;-45
2023/07/14 09:07:38;;;;;;;4.53;0.75;;;;;;;17.23;100.00;100366.47;5055997;28;20499;-46
2023/07/14 09:10:04;;;;;;;4.28;1.10;;;;;;;17.27;100.00;100371.34;5043459;28;20082;-53
2023/07/14 09:12:51;;;;;;;2.58;1.45;;;;;;;17.35;100.00;100362.97;5044127;28;20363;-55
2023/07/14 09:15:22;;;;;;;4.43;1.77;;;;;;;17.41;100.00;100356.63;5039408;28;20072;-48
2023/07/14 09:17:53;;;;;;;4.38;2.78;;;;;;;17.38;100.00;100363.28;5047003;28;21292;-50
2023/07/14 09:20:37;;;;;;;8.38;1.88;;;;;;;17.37;100.00;100366.19;5056522;28;20048;-47
2023/07/14 09:23:28;;;;;;;4.13;2.08;;;;;;;17.32;100.00;100361.56;5055840;28;20056;-49
2023/07/14 09:26:05;;;;;;;4.20;2.17;;;;;;;17.34;100.00;100358.63;5047038;28;21065;-48
2023/07/14 09:28:38;;;;;;;5.07;1.83;;;;;;;17.40;100.00;100355.03;5055080;28;20035;-47
2023/07/14 09:31:17;;;;;;;3.50;1.80;;;;;;;17.47;100.00;100349.50;5060167;28;20516;-47
2023/07/14 09:33:55;;;;;;;3.28;1.33;;;;;;;17.61;100.00;100348.16;5043439;28;20648;-47
2023/07/14 09:36:21;;;;;;;3.75;1.35;;;;;;;17.74;100.00;100344.38;5059326;28;20305;-49
2023/07/14 09:38:52;;;;;;;3.05;1.00;;;;;;;17.73;100.00;100332.81;5050220;28;20025;-48
2023/07/14 09:41:19;;;;;;;3.60;1.40;;;;;;;17.77;100.00;100325.91;5057039;28;20028;-55
2023/07/14 09:43:44;;;;;;;8.82;2.45;;;;;;;17.81;100.00;100328.94;5054831;28;20112;-53
2023/07/14 09:46:13;;;;;;;7.75;1.42;;;;;;;17.76;100.00;100320.78;5049222;28;20034;-47
2023/07/14 09:48:47;;;;;;;6.38;3.25;;;;;;;17.90;100.00;100306.06;5058315;28;20037;-52
2023/07/14 09:51:20;;;;;;;6.68;1.05;;;;;;;18.00;100.00;100306.22;5042218;28;20029;-52
2023/07/14 09:54:05;;;;;;;6.75;1.80;;;;;;;18.18;100.00;100299.78;5038905;28;20145;-44
2023/07/14 09:56:32;;;;;;;4.15;2.30;;;;;;;18.14;100.00;100289.78;5047474;28;20043;-44
2023/07/14 09:59:14;;;;;;;4.20;1.33;;;;;;;18.20;100.00;100267.31;5048625;28;20413;-48
2023/07/14 10:01:48;;;;;;;;;;;;;;;18.46;100.00;100260.47;5048586;28;20045;-54
2023/07/14 10:04:15;;;;;;;3.35;1.15;;;;;;;18.32;100.00;100254.63;5048352;28;20428;-47
2023/07/14 10:06:41;;;;;;;2.50;1.05;;;;;;;18.29;100.00;100258.59;5043537;28;20159;-45
2023/07/14 10:09:11;;;;;;;1.95;1.00;;;;;;;18.23;100.00;100251.56;5058567;28;20029;-52
2023/07/14 10:11:48;;;;;;;4.43;0.90;;;;;;;18.19;100.00;100244.25;5047013;28;20081;-49
2023/07/14 10:14:35;;;;;;;3.40;1.25;;;;;;;17.94;100.00;100242.00;5046095;28;20036;-52
2023/07/14 10:17:01;;;;;;;4.38;1.50;;;;;;;17.97;100.00;100236.97;5048052;28;20444;-47
2023/07/14 10:19:56;;;;;;;4.28;0.77;;;;;;;17.99;100.00;100234.84;5049275;28;20520;-48
2023/07/14 10:22:31;;;;;;;4.45;1.27;;;;;;;17.92;100.00;100226.16;5040200;28;20049;-46
2023/07/14 10:24:59;;;;;;;5.15;1.65;;;;;;;17.90;100.00;100230.94;5047471;28;20390;-45
2023/07/14 10:27:27;;;;;;;3.25;1.27;;;;;;;17.75;100.00;100222.63;5041776;28;20026;-48
2023/07/14 10:30:05;;;;;;;2.92;1.80;;;;;;;17.53;100.00;100219.88;5053018;28;20465;-57
2023/07/14 10:32:53;;;;;;;4.45;1.73;;;;;;;17.40;100.00;100226.38;5046656;28;20241;-57
2023/07/14 10:35:23;;;;;;;3.42;1.40;;;;;;;17.39;100.00;100208.66;5058379;28;20037;-49
2023/07/14 10:37:55;;;;;;;2.88;0.80;;;;;;;17.42;100.00;100203.66;5049498;28;20468;-49
2023/07/14 10:40:25;;;;;;;5.07;1.63;;;;;;;17.31;100.00;100204.50;5044978;28;20040;-50
2023/07/14 10:43:03;;;;;;;5.53;2.53;;;;;;;17.28;100.00;100201.50;5056327;28;20028;-49
2023/07/14 10:45:30;;;;;;;4.05;1.17;;;;;;;17.28;100.00;100201.50;5045926;28;20732;-48
2023/07/14 10:48:16;;;;;;;4.35;2.13;;;;;;;17.33;100.00;100193.56;5044196;28;20033;-48
2023/07/14 10:50:58;;;;;;;6.55;2.25;;;;;;;17.27;100.00;100189.16;5041494;28;20086;-46
2023/07/14 10:53:41;;;;;;;4.43;1.05;;;;;;;17.18;100.00;100181.53;5054635;28;20406;-51
2023/07/14 10:56:31;;;;;;;6.32;1.52;;;;;;;17.08;100.00;100183.22;5034105;28;20037;-49
2023/07/14 10:59:06;;;;;;;3.20;1.63;;;;;;;17.03;100.00;100175.09;5032525;28;20113;-53
2023/07/14 11:01:38;;;;;;;3.00;1.38;;;;;;;17.00;100.00;100163.00;5043987;28;20060;-50
2023/07/14 11:04:13;;;;;;;9.63;1.73;;;;;;;17.04;100.00;100161.47;5043279;28;20121;-48
2023/07/14 11:06:43;;;;;;;4.57;1.48;;;;;;;17.15;100.00;100149.06;5045685;28;20106;-52
2023/07/14 11:09:12;;;;;;;2.05;1.05;;;;;;;17.20;100.00;100141.09;5046434;28;20051;-48
2023/07/14 11:11:59;;;;;;;2.78;1.60;;;;;;;17.25;100.00;100127.78;5046689;28;20029;-54
2023/07/14 11:14:58;;;;;;;1.88;0.93;;;;;;;17.27;100.00;100120.31;5049107;28;20685;-50
2023/07/14 11:17:41;;;;;;;4.20;1.42;;;;;;;17.18;100.00;100122.59;5065555;28;20058;-53
2023/07/14 11:20:22;;;;;;;4.20;1.35;;;;;;;17.17;100.00;100110.25;5040312;28;20136;-47
2023/07/14 11:22:51;;;;;;;;;;;;;;;17.31;100.00;100108.06;5057292;28;20115;-56
2023/07/14 11:25:35;;;;;;;4.85;1.80;;;;;;;17.32;100.00;100100.81;5046285;28;19926;-50
2023/07/14 11:28:11;;;;;;;1.30;1.17;;;;;;;17.28;100.00;100095.16;5053536;28;20551;-57
2023/07/14 11:30:42;;;;;;;2.72;1.02;;;;;;;17.27;100.00;100090.03;5045961;28;20531;-49
2023/07/14 11:33:24;;;;;;;4.88;1.42;;;;;;;17.32;100.00;100084.75;5047894;28;20551;-53
2023/07/14 11:36:05;;;;;;;7.68;1.50;;;;;;;17.33;100.00;100086.38;5046140;28;20037;-51
2023/07/14 11:39:08;;;;;;;3.23;1.33;;;;;;;17.38;100.00;100084.59;5043256;28;20041;-47
2023/07/14 11:41:34;;;;;;;1.85;0.80;;;;;;;17.45;100.00;100087.09;5051746;28;20756;-49
2023/07/14 11:44:05;;;;;;;2.85;1.52;;;;;;;17.47;100.00;100081.47;5041946;28;21302;-50